createdAt,value
2018-09-18T00:01:09.715Z,15.60
2018-09-18T00:03:37.993Z,15.60
2018-09-18T00:06:06.265Z,15.50
2018-09-18T00:08:34.515Z,15.40
2018-09-18T00:11:02.793Z,15.40
2018-09-18T00:13:31.077Z,15.30
2018-09-18T00:15:59.343Z,15.30
2018-09-18T00:18:27.617Z,15.30
2018-09-18T00:20:55.968Z,15.30
2018-09-18T00:23:24.233Z,15.20
2018-09-18T00:25:53.452Z,15.20
2018-09-18T00:28:21.724Z,15.20
2018-09-18T00:30:50.209Z,15.10
2018-09-18T00:33:18.456Z,15.10
2018-09-18T00:35:46.708Z,15.10
2018-09-18T00:38:14.951Z,15.10
2018-09-18T00:40:43.252Z,15.10
2018-09-18T00:43:11.514Z,15.10
2018-09-18T00:45:39.789Z,15.10
2018-09-18T00:48:08.061Z,15.10
2018-09-18T00:50:36.367Z,15.10
2018-09-18T00:53:04.640Z,15.10
2018-09-18T00:55:32.931Z,15.00
2018-09-18T00:58:01.211Z,15.00
2018-09-18T01:00:29.464Z,15.00
2018-09-18T01:02:57.716Z,15.00
2018-09-18T01:05:25.977Z,15.00
2018-09-18T01:07:54.255Z,15.00
2018-09-18T01:10:22.524Z,15.00
2018-09-18T01:12:50.782Z,14.90
2018-09-18T01:15:19.073Z,14.90
2018-09-18T01:17:47.336Z,14.90
2018-09-18T01:20:15.603Z,14.90
2018-09-18T01:22:43.893Z,14.90
2018-09-18T01:25:12.151Z,14.90
2018-09-18T01:27:40.469Z,14.80
2018-09-18T01:30:08.759Z,14.80
2018-09-18T01:32:37.043Z,14.80
2018-09-18T01:35:05.343Z,14.80
2018-09-18T01:37:33.601Z,14.80
2018-09-18T01:40:01.859Z,14.80
2018-09-18T01:42:30.164Z,14.80
2018-09-18T01:44:58.462Z,14.70
2018-09-18T01:47:26.719Z,14.70
2018-09-18T01:49:55.012Z,14.70
2018-09-18T01:52:23.269Z,14.70
2018-09-18T01:54:51.523Z,14.70
2018-09-18T01:57:19.840Z,14.70
2018-09-18T01:59:48.116Z,14.70
2018-09-18T02:02:16.403Z,14.60
2018-09-18T02:04:44.645Z,14.60
2018-09-18T02:07:12.919Z,14.60
2018-09-18T02:09:41.176Z,14.60
2018-09-18T02:12:09.453Z,14.50
2018-09-18T02:14:37.737Z,14.50
2018-09-18T02:17:06.012Z,14.50
2018-09-18T02:19:34.381Z,14.50
2018-09-18T02:22:02.640Z,14.40
2018-09-18T02:24:30.912Z,14.40
2018-09-18T02:26:59.174Z,14.40
2018-09-18T02:29:27.424Z,14.40
2018-09-18T02:31:55.682Z,14.40
2018-09-18T02:34:23.952Z,14.30
2018-09-18T02:36:52.229Z,14.30
2018-09-18T02:39:20.506Z,14.30
2018-09-18T02:41:48.782Z,14.20
2018-09-18T02:44:17.063Z,14.20
2018-09-18T02:46:45.338Z,14.20
2018-09-18T02:49:13.604Z,14.10
2018-09-18T02:51:42.204Z,14.10
2018-09-18T02:54:10.473Z,14.10
2018-09-18T02:56:38.811Z,14.10
2018-09-18T02:59:07.045Z,14.10
2018-09-18T03:01:35.308Z,14.00
2018-09-18T03:04:03.593Z,14.00
2018-09-18T03:06:31.868Z,14.10
2018-09-18T03:09:00.153Z,14.10
2018-09-18T03:11:28.493Z,14.00
2018-09-18T03:13:56.710Z,14.00
2018-09-18T03:16:24.989Z,14.00
2018-09-18T03:18:53.251Z,14.00
2018-09-18T03:21:21.509Z,14.00
2018-09-18T03:23:49.787Z,14.00
2018-09-18T03:26:18.039Z,14.00
2018-09-18T03:28:46.287Z,14.00
2018-09-18T03:31:14.535Z,14.00
2018-09-18T03:33:42.824Z,14.00
2018-09-18T03:36:11.103Z,14.00
2018-09-18T03:38:39.385Z,14.00
2018-09-18T03:41:07.691Z,14.00
2018-09-18T03:43:35.968Z,14.00
2018-09-18T03:46:04.222Z,14.00
2018-09-18T03:48:32.579Z,14.00
2018-09-18T03:51:01.354Z,14.00
2018-09-18T03:53:29.672Z,14.00
2018-09-18T03:55:57.927Z,14.00
2018-09-18T03:58:26.239Z,14.00
2018-09-18T04:00:54.491Z,14.00
2018-09-18T04:03:22.764Z,14.00
2018-09-18T04:05:51.078Z,14.00
2018-09-18T04:08:19.352Z,14.00
2018-09-18T04:10:47.612Z,14.00
2018-09-18T04:13:15.881Z,14.00
2018-09-18T04:15:44.153Z,14.00
2018-09-18T04:18:14.547Z,14.00
2018-09-18T04:20:42.821Z,14.00
2018-09-18T04:23:11.153Z,13.90
2018-09-18T04:25:39.461Z,13.90
2018-09-18T04:28:07.725Z,14.00
2018-09-18T04:30:36.009Z,14.00
2018-09-18T04:33:04.275Z,14.00
2018-09-18T04:35:32.547Z,14.10
2018-09-18T04:38:00.909Z,14.10
2018-09-18T04:40:29.170Z,14.10
2018-09-18T04:42:57.463Z,14.00
2018-09-18T04:45:25.715Z,14.00
2018-09-18T04:47:54.328Z,14.00
2018-09-18T04:50:22.674Z,13.90
2018-09-18T04:52:51.060Z,13.90
2018-09-18T04:55:19.336Z,13.80
2018-09-18T04:57:47.627Z,13.80
2018-09-18T05:00:15.891Z,13.80
2018-09-18T05:02:44.155Z,13.80
2018-09-18T05:05:13.054Z,13.80
2018-09-18T05:07:41.411Z,13.90
2018-09-18T05:10:09.675Z,13.80
2018-09-18T05:12:37.944Z,13.80
2018-09-18T05:15:06.301Z,13.70
2018-09-18T05:17:34.579Z,13.70
2018-09-18T05:20:03.049Z,13.60
2018-09-18T05:22:31.311Z,13.60
2018-09-18T05:24:59.602Z,13.70
2018-09-18T05:27:27.865Z,13.70
2018-09-18T05:29:56.160Z,13.70
2018-09-18T05:32:24.537Z,13.70
2018-09-18T05:34:52.835Z,13.70
2018-09-18T05:37:21.116Z,13.70
2018-09-18T05:39:49.375Z,13.80
2018-09-18T05:42:17.672Z,13.80
2018-09-18T05:44:45.959Z,13.80
2018-09-18T05:47:14.967Z,13.80
2018-09-18T05:49:43.337Z,13.80
2018-09-18T05:52:11.603Z,13.80
2018-09-18T05:54:39.869Z,13.80
2018-09-18T05:57:08.163Z,13.80
2018-09-18T05:59:36.452Z,13.80
2018-09-18T06:02:04.839Z,13.90
2018-09-18T06:04:33.095Z,13.90
2018-09-18T06:07:01.371Z,13.90
2018-09-18T06:09:29.640Z,14.00
2018-09-18T06:11:57.925Z,14.00
2018-09-18T06:14:26.236Z,14.00
2018-09-18T06:16:54.519Z,14.10
2018-09-18T06:19:22.798Z,14.20
2018-09-18T06:21:51.079Z,14.20
2018-09-18T06:24:19.344Z,14.30
2018-09-18T06:26:47.953Z,14.30
2018-09-18T06:29:16.253Z,14.40
2018-09-18T06:31:44.547Z,14.40
2018-09-18T06:34:12.823Z,14.50
2018-09-18T06:36:41.083Z,14.60
2018-09-18T06:39:10.518Z,14.60
2018-09-18T06:41:39.113Z,14.70
2018-09-18T06:44:07.437Z,14.80
2018-09-18T06:46:35.728Z,14.80
2018-09-18T06:49:04.017Z,14.90
2018-09-18T06:51:32.315Z,15.00
2018-09-18T06:54:00.578Z,15.10
2018-09-18T06:56:28.879Z,15.10
2018-09-18T06:58:57.163Z,15.20
2018-09-18T07:01:25.430Z,15.30
2018-09-18T07:03:53.755Z,15.40
2018-09-18T07:06:22.012Z,15.50
2018-09-18T07:08:50.270Z,15.50
2018-09-18T07:11:18.573Z,15.60
2018-09-18T07:13:46.863Z,15.70
2018-09-18T07:16:15.162Z,15.90
2018-09-18T07:18:43.447Z,16.00
2018-09-18T07:21:13.031Z,16.20
2018-09-18T07:23:41.344Z,16.40
2018-09-18T07:26:09.846Z,16.50
2018-09-18T07:28:38.139Z,16.60
2018-09-18T07:31:06.419Z,16.80
2018-09-18T07:33:34.726Z,16.90
2018-09-18T07:36:03.028Z,17.20
2018-09-18T07:38:31.395Z,17.30
2018-09-18T07:40:59.718Z,17.50
2018-09-18T07:43:27.965Z,17.60
2018-09-18T07:45:56.235Z,17.80
2018-09-18T07:48:24.522Z,17.90
2018-09-18T07:50:52.794Z,18.00
2018-09-18T07:53:21.083Z,18.20
2018-09-18T07:55:49.408Z,18.30
2018-09-18T07:58:17.676Z,18.40
2018-09-18T08:00:45.958Z,18.50
2018-09-18T08:03:14.247Z,18.60
2018-09-18T08:05:42.488Z,18.80
2018-09-18T08:08:10.768Z,18.90
2018-09-18T08:10:39.091Z,19.00
2018-09-18T08:13:07.405Z,19.10
2018-09-18T08:15:35.704Z,19.20
2018-09-18T08:18:03.977Z,19.40
2018-09-18T08:20:32.259Z,19.50
2018-09-18T08:23:00.541Z,19.60
2018-09-18T08:25:29.013Z,19.60
2018-09-18T08:27:57.277Z,19.60
2018-09-18T08:30:25.550Z,19.70
2018-09-18T08:32:53.879Z,19.80
2018-09-18T08:35:22.087Z,19.80
2018-09-18T08:37:50.463Z,19.90
2018-09-18T08:40:18.737Z,19.90
2018-09-18T08:42:47.036Z,20.00
2018-09-18T08:45:15.365Z,20.00
2018-09-18T08:47:43.608Z,20.10
2018-09-18T08:50:11.939Z,20.20
2018-09-18T08:52:40.270Z,20.20
2018-09-18T08:55:08.560Z,20.30
2018-09-18T08:57:36.830Z,20.30
2018-09-18T09:00:05.520Z,20.40
2018-09-18T09:02:33.796Z,20.40
2018-09-18T09:05:02.125Z,20.50
2018-09-18T09:07:30.369Z,20.60
2018-09-18T09:09:58.651Z,20.70
2018-09-18T09:12:26.970Z,20.70
2018-09-18T09:14:55.291Z,20.80
2018-09-18T09:17:23.585Z,20.90
2018-09-18T09:19:51.836Z,21.00
2018-09-18T09:22:20.203Z,21.20
2018-09-18T09:24:48.413Z,21.20
2018-09-18T09:27:16.690Z,21.30
2018-09-18T09:29:45.042Z,21.30
2018-09-18T09:32:13.317Z,21.40
2018-09-18T09:34:41.546Z,21.50
2018-09-18T09:37:09.903Z,21.50
2018-09-18T09:39:38.146Z,21.60
2018-09-18T09:42:06.634Z,21.70
2018-09-18T09:44:34.920Z,21.70
2018-09-18T09:47:03.225Z,21.80
2018-09-18T09:49:31.497Z,21.80
2018-09-18T09:52:00.798Z,21.90
2018-09-18T09:54:29.067Z,22.00
2018-09-18T09:56:57.364Z,22.10
2018-09-18T09:59:25.623Z,22.20
2018-09-18T10:01:59.125Z,22.30
2018-09-18T10:04:27.387Z,22.40
2018-09-18T10:06:55.677Z,22.40
2018-09-18T10:09:23.941Z,22.50
2018-09-18T10:11:52.219Z,22.60
2018-09-18T10:14:20.509Z,22.60
2018-09-18T10:16:48.798Z,22.70
2018-09-18T10:19:17.053Z,22.90
2018-09-18T10:21:45.351Z,23.00
2018-09-18T10:24:13.621Z,23.20
2018-09-18T10:26:41.950Z,23.20
2018-09-18T10:29:10.196Z,23.30
2018-09-18T10:31:38.467Z,23.40
2018-09-18T10:34:06.816Z,23.50
2018-09-18T10:36:36.144Z,23.50
2018-09-18T10:39:06.194Z,23.60
2018-09-18T10:41:34.546Z,23.70
2018-09-18T10:44:02.722Z,23.80
2018-09-18T10:46:31.014Z,23.80
2018-09-18T10:48:59.263Z,23.90
2018-09-18T10:51:27.577Z,23.90
2018-09-18T10:53:55.937Z,23.90
2018-09-18T10:56:24.223Z,24.00
2018-09-18T10:58:52.529Z,24.10
2018-09-18T11:01:20.806Z,24.20
2018-09-18T11:03:49.141Z,24.20
2018-09-18T11:06:17.580Z,24.40
2018-09-18T11:08:45.821Z,24.40
2018-09-18T11:11:14.112Z,24.50
2018-09-18T11:13:42.439Z,24.50
2018-09-18T11:16:10.929Z,24.60
2018-09-18T11:18:39.108Z,24.60
2018-09-18T11:21:07.365Z,24.70
2018-09-18T11:23:35.650Z,24.70
2018-09-18T11:26:03.939Z,24.80
2018-09-18T11:28:32.225Z,24.80
2018-09-18T11:31:00.501Z,24.90
2018-09-18T11:33:28.769Z,24.80
2018-09-18T11:35:57.008Z,24.80
2018-09-18T11:38:25.322Z,24.80
2018-09-18T11:40:53.615Z,24.80
2018-09-18T11:43:21.888Z,24.90
2018-09-18T11:45:50.238Z,24.90
2018-09-18T11:48:18.453Z,25.00
2018-09-18T11:50:46.753Z,24.90
2018-09-18T11:53:15.033Z,25.00
2018-09-18T11:55:43.891Z,24.90
2018-09-18T11:58:12.223Z,24.90
2018-09-18T12:00:40.487Z,24.90
2018-09-18T12:03:08.825Z,25.00
2018-09-18T12:05:37.053Z,25.00
2018-09-18T12:08:05.580Z,25.00
2018-09-18T12:10:33.864Z,25.00
2018-09-18T12:13:02.194Z,25.00
2018-09-18T12:15:30.471Z,25.10
2018-09-18T12:17:58.746Z,25.20
2018-09-18T12:20:27.044Z,25.20
2018-09-18T12:22:55.344Z,25.20
2018-09-18T12:25:23.724Z,25.20
2018-09-18T12:27:51.999Z,25.30
2018-09-18T12:30:20.303Z,25.30
2018-09-18T12:32:48.580Z,25.30
2018-09-18T12:35:16.973Z,25.40
2018-09-18T12:37:45.181Z,25.50
2018-09-18T12:40:13.474Z,25.70
2018-09-18T12:42:41.788Z,25.70
2018-09-18T12:45:10.056Z,25.70
2018-09-18T12:47:38.361Z,25.70
2018-09-18T12:50:07.362Z,25.70
2018-09-18T12:52:36.070Z,25.70
2018-09-18T12:55:04.684Z,25.80
2018-09-18T12:57:33.013Z,25.90
2018-09-18T13:00:01.276Z,26.00
2018-09-18T13:02:29.580Z,26.00
2018-09-18T13:04:57.868Z,26.20
2018-09-18T13:07:26.182Z,26.30
2018-09-18T13:09:54.534Z,26.30
2018-09-18T13:12:22.786Z,26.30
2018-09-18T13:14:51.071Z,26.30
2018-09-18T13:17:19.481Z,26.30
2018-09-18T13:19:47.775Z,26.30
2018-09-18T13:22:16.103Z,26.30
2018-09-18T13:24:44.408Z,26.40
2018-09-18T13:27:12.807Z,26.40
2018-09-18T13:29:41.084Z,26.50
2018-09-18T13:32:09.434Z,26.60
2018-09-18T13:34:37.688Z,26.70
2018-09-18T13:37:06.017Z,26.70
2018-09-18T13:39:34.374Z,26.70
2018-09-18T13:42:02.648Z,26.70
2018-09-18T13:44:30.942Z,26.60
2018-09-18T13:46:59.229Z,26.60
2018-09-18T13:49:27.548Z,26.60
2018-09-18T13:51:55.919Z,26.60
2018-09-18T13:54:24.154Z,26.60
2018-09-18T13:56:52.640Z,26.70
2018-09-18T13:59:20.784Z,26.70
2018-09-18T14:01:49.108Z,26.80
2018-09-18T14:04:17.397Z,26.90
2018-09-18T14:06:45.656Z,26.90
2018-09-18T14:09:14.558Z,27.10
2018-09-18T14:11:42.788Z,27.20
2018-09-18T14:14:11.107Z,27.20
2018-09-18T14:16:39.421Z,27.20
2018-09-18T14:19:07.755Z,27.10
2018-09-18T14:21:36.042Z,27.10
2018-09-18T14:24:04.362Z,26.90
2018-09-18T14:26:33.486Z,26.90
2018-09-18T14:29:01.808Z,26.90
2018-09-18T14:31:30.112Z,26.90
2018-09-18T14:33:58.381Z,26.80
2018-09-18T14:36:26.702Z,26.80
2018-09-18T14:38:54.964Z,26.80
2018-09-18T14:41:23.270Z,26.70
2018-09-18T14:43:51.603Z,26.60
2018-09-18T14:46:19.884Z,26.50
2018-09-18T14:48:48.198Z,26.40
2018-09-18T14:51:16.600Z,26.30
2018-09-18T14:53:44.795Z,26.20
2018-09-18T14:56:13.084Z,26.20
2018-09-18T14:58:41.423Z,26.30
2018-09-18T15:01:09.714Z,26.30
2018-09-18T15:03:37.989Z,26.40
2018-09-18T15:06:06.323Z,26.50
2018-09-18T15:08:34.646Z,26.60
2018-09-18T15:11:02.960Z,26.70
2018-09-18T15:13:31.423Z,26.80
2018-09-18T15:15:59.715Z,26.90
2018-09-18T15:18:28.049Z,27.00
2018-09-18T15:20:56.324Z,27.00
2018-09-18T15:23:24.639Z,27.20
2018-09-18T15:25:52.930Z,27.30
2018-09-18T15:28:21.968Z,27.50
2018-09-18T15:30:50.266Z,27.60
2018-09-18T15:33:18.672Z,27.70
2018-09-18T15:35:47.000Z,27.70
2018-09-18T15:38:15.292Z,27.70
2018-09-18T15:40:44.248Z,27.70
2018-09-18T15:43:12.741Z,27.70
2018-09-18T15:45:40.979Z,27.70
2018-09-18T15:48:09.252Z,27.70
2018-09-18T15:50:37.530Z,27.60
2018-09-18T15:53:05.868Z,27.60
2018-09-18T15:55:34.184Z,27.50
2018-09-18T15:58:02.456Z,27.40
2018-09-18T16:00:30.721Z,27.20
2018-09-18T16:02:59.016Z,27.10
2018-09-18T16:05:27.324Z,26.90
2018-09-18T16:07:55.632Z,26.80
2018-09-18T16:10:23.913Z,26.70
2018-09-18T16:12:52.210Z,26.50
2018-09-18T16:15:21.154Z,26.40
2018-09-18T16:17:50.381Z,26.30
2018-09-18T16:20:18.792Z,26.20
2018-09-18T16:22:47.171Z,26.10
2018-09-18T16:25:15.372Z,26.10
2018-09-18T16:27:43.648Z,26.00
2018-09-18T16:30:11.936Z,26.00
2018-09-18T16:32:40.266Z,25.90
2018-09-18T16:35:08.615Z,25.90
2018-09-18T16:37:36.912Z,25.90
2018-09-18T16:40:05.690Z,25.90
2018-09-18T16:42:34.518Z,25.90
2018-09-18T16:45:02.766Z,25.90
2018-09-18T16:47:31.076Z,25.80
2018-09-18T16:49:59.372Z,25.70
2018-09-18T16:52:27.839Z,25.50
2018-09-18T16:54:56.213Z,25.20
2018-09-18T16:57:24.406Z,25.10
2018-09-18T16:59:52.694Z,24.90
2018-09-18T17:02:21.187Z,24.80
2018-09-18T17:04:50.201Z,24.70
2018-09-18T17:07:18.524Z,24.60
2018-09-18T17:09:46.860Z,24.60
2018-09-18T17:12:15.723Z,24.50
2018-09-18T17:14:44.630Z,24.40
2018-09-18T17:17:12.929Z,24.40
2018-09-18T17:19:41.371Z,24.40
2018-09-18T17:22:09.611Z,24.30
2018-09-18T17:24:37.955Z,24.30
2018-09-18T17:27:06.281Z,24.20
2018-09-18T17:29:34.631Z,24.20
2018-09-18T17:32:02.991Z,24.10
2018-09-18T17:34:31.380Z,24.00
2018-09-18T17:36:59.598Z,23.90
2018-09-18T17:39:27.978Z,23.70
2018-09-18T17:41:56.269Z,23.50
2018-09-18T17:44:24.626Z,23.30
2018-09-18T17:46:52.924Z,23.00
2018-09-18T17:49:21.254Z,22.90
2018-09-18T17:51:49.566Z,22.60
2018-09-18T17:54:17.895Z,22.50
2018-09-18T17:56:46.284Z,22.30
2018-09-18T17:59:14.582Z,22.20
2018-09-18T18:01:42.915Z,22.10
2018-09-18T18:04:11.257Z,21.90
2018-09-18T18:06:39.602Z,21.80
2018-09-18T18:09:08.546Z,21.70
2018-09-18T18:11:36.990Z,21.60
2018-09-18T18:14:07.118Z,21.50
2018-09-18T18:16:37.171Z,21.40
2018-09-18T18:19:05.595Z,21.30
2018-09-18T18:21:33.953Z,21.30
2018-09-18T18:24:02.323Z,21.20
2018-09-18T18:26:31.468Z,21.10
2018-09-18T18:29:00.319Z,21.10
2018-09-18T18:31:29.270Z,21.00
2018-09-18T18:33:58.380Z,20.90
2018-09-18T18:36:26.795Z,20.80
2018-09-18T18:38:55.190Z,20.70
2018-09-18T18:41:23.926Z,20.70
2018-09-18T18:43:52.322Z,20.70
2018-09-18T18:46:20.854Z,20.60
2018-09-18T18:48:49.393Z,20.50
2018-09-18T18:51:17.778Z,20.50
2018-09-18T18:53:46.290Z,20.40
2018-09-18T18:56:14.712Z,20.30
2018-09-18T18:58:43.791Z,20.30
2018-09-18T19:01:13.017Z,20.30
2018-09-18T19:03:41.869Z,20.20
2018-09-18T19:06:10.350Z,20.20
2018-09-18T19:08:38.935Z,20.20
2018-09-18T19:11:07.576Z,20.20
2018-09-18T19:13:36.115Z,20.10
2018-09-18T19:16:04.532Z,20.10
2018-09-18T19:18:34.867Z,20.00
2018-09-18T19:21:03.289Z,20.00
2018-09-18T19:23:32.008Z,20.00
2018-09-18T19:26:00.654Z,19.90
2018-09-18T19:28:29.813Z,19.90
2018-09-18T19:30:58.287Z,19.80
2018-09-18T19:33:27.780Z,19.70
2018-09-18T19:35:56.452Z,19.70
2018-09-18T19:38:25.840Z,19.70
2018-09-18T19:40:54.338Z,19.70
2018-09-18T19:43:22.936Z,19.60
2018-09-18T19:45:52.572Z,19.60
2018-09-18T19:48:21.169Z,19.50
2018-09-18T19:50:49.584Z,19.50
2018-09-18T19:53:18.022Z,19.40
2018-09-18T19:55:46.493Z,19.40
2018-09-18T19:58:14.890Z,19.30
2018-09-18T20:00:43.298Z,19.30
2018-09-18T20:03:12.414Z,19.30
2018-09-18T20:05:40.817Z,19.20
2018-09-18T20:08:09.242Z,19.20
2018-09-18T20:10:37.843Z,19.10
2018-09-18T20:13:06.629Z,19.10
2018-09-18T20:15:35.314Z,19.10
2018-09-18T20:18:03.880Z,19.00
2018-09-18T20:20:32.546Z,19.00
2018-09-18T20:23:00.959Z,19.00
2018-09-18T20:25:29.640Z,19.00
2018-09-18T20:27:58.003Z,19.00
2018-09-18T20:30:26.429Z,19.00
2018-09-18T20:32:54.847Z,19.00
2018-09-18T20:35:23.390Z,19.00
2018-09-18T20:37:51.769Z,19.00
2018-09-18T20:40:20.120Z,19.00
2018-09-18T20:42:48.536Z,19.00
2018-09-18T20:45:16.975Z,19.00
2018-09-18T20:47:45.323Z,19.00
2018-09-18T20:50:13.675Z,18.90
2018-09-18T20:52:42.027Z,18.90
2018-09-18T20:55:10.683Z,18.90
2018-09-18T20:57:38.994Z,18.80
2018-09-18T21:00:07.490Z,18.80
2018-09-18T21:02:35.794Z,18.80
2018-09-18T21:05:04.113Z,18.80
2018-09-18T21:07:32.432Z,18.80
2018-09-18T21:10:00.743Z,18.80
2018-09-18T21:12:29.073Z,18.80
2018-09-18T21:14:57.389Z,18.80
2018-09-18T21:17:25.905Z,18.80
2018-09-18T21:19:54.191Z,18.80
2018-09-18T21:22:22.536Z,18.80
2018-09-18T21:24:54.725Z,18.80
2018-09-18T21:27:23.035Z,18.90
2018-09-18T21:29:51.333Z,18.90
2018-09-18T21:32:19.927Z,19.00
2018-09-18T21:34:48.190Z,19.00
2018-09-18T21:37:16.471Z,19.00
2018-09-18T21:39:44.923Z,19.00
2018-09-18T21:42:13.227Z,19.00
2018-09-18T21:44:41.552Z,19.00
2018-09-18T21:47:09.885Z,19.00
2018-09-18T21:49:38.142Z,19.00
2018-09-18T21:52:06.433Z,19.00
2018-09-18T21:54:34.712Z,19.00
2018-09-18T21:57:03.006Z,19.00
2018-09-18T21:59:31.307Z,19.00
2018-09-18T22:01:59.715Z,19.00
2018-09-18T22:04:27.989Z,19.00
2018-09-18T22:06:56.317Z,19.00
2018-09-18T22:09:24.539Z,19.00
2018-09-18T22:11:52.799Z,19.00
2018-09-18T22:14:21.088Z,19.00
2018-09-18T22:16:49.439Z,19.00
2018-09-18T22:19:17.774Z,19.00
2018-09-18T22:21:46.075Z,19.00
2018-09-18T22:24:14.337Z,19.00
2018-09-18T22:26:42.625Z,19.10
2018-09-18T22:29:10.889Z,19.10
2018-09-18T22:31:39.483Z,19.10
2018-09-18T22:34:07.777Z,19.10
2018-09-18T22:36:36.072Z,19.00
2018-09-18T22:39:06.816Z,19.00
2018-09-18T22:41:35.244Z,19.00
2018-09-18T22:44:03.665Z,19.00
2018-09-18T22:46:31.943Z,19.00
2018-09-18T22:49:00.223Z,18.90
2018-09-18T22:51:28.723Z,18.80
2018-09-18T22:53:57.004Z,18.80
2018-09-18T22:56:25.268Z,18.80
2018-09-18T22:58:53.569Z,18.80
2018-09-18T23:01:21.845Z,18.80
2018-09-18T23:03:50.139Z,18.70
2018-09-18T23:06:18.416Z,18.70
2018-09-18T23:08:46.679Z,18.70
2018-09-18T23:11:14.951Z,18.60
2018-09-18T23:13:43.264Z,18.60
2018-09-18T23:16:11.551Z,18.50
2018-09-18T23:18:39.873Z,18.50
2018-09-18T23:21:08.138Z,18.40
2018-09-18T23:23:36.415Z,18.40
2018-09-18T23:26:04.705Z,18.30
2018-09-18T23:28:32.959Z,18.30
2018-09-18T23:31:01.271Z,18.30
2018-09-18T23:33:29.495Z,18.30
2018-09-18T23:35:57.767Z,18.30
2018-09-18T23:38:26.038Z,18.30
2018-09-18T23:40:54.317Z,18.30
2018-09-18T23:43:22.544Z,18.30
2018-09-18T23:45:53.267Z,18.40
2018-09-18T23:48:21.540Z,18.30
2018-09-18T23:50:49.800Z,18.40
2018-09-18T23:53:18.053Z,18.40
2018-09-18T23:55:46.335Z,18.30
2018-09-18T23:58:14.636Z,18.30
